Time,TemperatureF,DewpointF,PressureIn,WindDirection,WindDirectionDegrees,WindSpeedMPH,WindSpeedGustMPH,Humidity,HourlyPrecipIn,Conditions,Clouds,dailyrainin,SoftwareType,DateUTC
2013-08-30 00:00:00,70.8,66.7,30.02,ENE,60,8.0,10.0,87,0.00,,---,0.00,VWS V14.01,2013-08-30 04:00:00,
2013-08-30 00:01:00,70.8,66.7,30.02,ENE,60,9.0,10.0,87,0.00,,---,0.00,VWS V14.01,2013-08-30 04:01:00,
2013-08-30 00:02:00,70.8,67.1,30.02,ENE,57,5.0,8.0,88,0.00,,---,0.00,VWS V14.01,2013-08-30 04:02:00,
2013-08-30 00:03:00,70.9,67.2,30.02,NE,49,5.0,8.0,88,0.00,,---,0.00,VWS V14.01,2013-08-30 04:03:00,
2013-08-30 00:08:00,70.7,67.0,30.01,ENE,74,7.0,9.0,88,0.00,,---,0.00,VWS V14.01,2013-08-30 04:08:00,
2013-08-30 00:13:00,70.7,67.3,30.01,ENE,59,8.0,11.0,89,0.00,,---,0.00,VWS V14.01,2013-08-30 04:13:00,
2013-08-30 00:18:00,70.6,66.9,30.01,ENE,57,8.0,11.0,88,0.00,,---,0.00,VWS V14.01,2013-08-30 04:18:00,
2013-08-30 00:23:00,70.6,66.9,30.00,ENE,58,6.0,11.0,88,0.00,,---,0.00,VWS V14.01,2013-08-30 04:23:00,
2013-08-30 00:28:00,70.6,66.9,30.00,ENE,60,6.0,11.0,88,0.00,,---,0.00,VWS V14.01,2013-08-30 04:28:00,
2013-08-30 00:30:00,70.6,66.9,30.00,ENE,65,5.0,11.0,88,0.00,,---,0.00,VWS V14.01,2013-08-30 04:30:00,
2013-08-30 00:33:00,70.5,66.8,30.01,ESE,110,3.0,6.0,88,0.00,,---,0.00,VWS V14.01,2013-08-30 04:33:00,
2013-08-30 00:38:00,70.6,67.2,30.00,NE,53,8.0,10.0,89,0.00,,---,0.00,VWS V14.01,2013-08-30 04:38:00,
2013-08-30 00:43:00,70.5,66.8,30.00,NE,56,7.0,10.0,88,0.00,,---,0.00,VWS V14.01,2013-08-30 04:43:00,
2013-08-30 00:48:00,70.5,66.8,30.00,NE,56,8.0,10.0,88,0.00,,---,0.00,VWS V14.01,2013-08-30 04:48:00,
2013-08-30 00:53:00,70.4,66.3,30.01,NE,54,6.0,10.0,87,0.00,,---,0.00,VWS V14.01,2013-08-30 04:53:00,
2013-08-30 00:58:00,70.5,66.4,30.01,ENE,57,7.0,10.0,87,0.00,,---,0.00,VWS V14.01,2013-08-30 04:58:00,
2013-08-30 01:00:00,70.5,66.4,30.01,ENE,64,5.0,10.0,87,0.00,,---,0.00,VWS V14.01,2013-08-30 05:00:00,
2013-08-30 01:03:00,70.5,66.4,30.01,ENE,63,7.0,7.0,87,0.00,,---,0.00,VWS V14.01,2013-08-30 05:03:00,
2013-08-30 01:08:00,70.5,66.4,30.00,ENE,64,6.0,9.0,87,0.00,,---,0.00,VWS V14.01,2013-08-30 05:08:00,
2013-08-30 01:13:00,70.6,66.9,30.00,ENE,61,8.0,9.0,88,0.00,,---,0.00,VWS V14.01,2013-08-30 05:13:00,
2013-08-30 01:18:00,70.5,66.4,30.00,ENE,71,3.0,9.0,87,0.00,,---,0.00,VWS V14.01,2013-08-30 05:18:00,
2013-08-30 01:23:00,70.4,66.3,30.00,ENE,58,4.0,9.0,87,0.00,,---,0.00,VWS V14.01,2013-08-30 05:23:00,
2013-08-30 01:28:00,70.3,66.2,30.01,ENE,65,6.0,9.0,87,0.00,,---,0.00,VWS V14.01,2013-08-30 05:28:00,
2013-08-30 01:30:00,70.3,66.6,30.01,ENE,61,6.0,9.0,88,0.00,,---,0.00,VWS V14.01,2013-08-30 05:30:00,
2013-08-30 01:33:00,70.4,66.7,30.01,ENE,77,5.0,6.0,88,0.00,,---,0.00,VWS V14.01,2013-08-30 05:33:00,
2013-08-30 01:38:00,70.3,66.6,30.02,ESE,104,2.0,6.0,88,0.00,,---,0.00,VWS V14.01,2013-08-30 05:38:00,
2013-08-30 01:43:00,70.2,66.5,30.02,East,91,2.0,6.0,88,0.00,,---,0.00,VWS V14.01,2013-08-30 05:43:00,
2013-08-30 01:48:00,70.1,66.1,30.02,ESE,104,1.0,6.0,87,0.00,,---,0.00,VWS V14.01,2013-08-30 05:48:00,
2013-08-30 01:53:00,70.1,66.4,30.02,NE,37,1.0,6.0,88,0.00,,---,0.00,VWS V14.01,2013-08-30 05:53:00,
2013-08-30 01:58:00,69.9,65.9,30.02,NE,37,2.0,6.0,87,0.00,,---,0.00,VWS V14.01,2013-08-30 05:58:00,
2013-08-30 02:00:00,69.8,65.8,30.02,NE,48,4.0,6.0,87,0.00,,---,0.00,VWS V14.01,2013-08-30 06:00:00,
2013-08-30 02:03:00,69.8,65.8,30.01,NNE,20,2.0,4.0,87,0.00,,---,0.00,VWS V14.01,2013-08-30 06:03:00,
2013-08-30 02:08:00,69.9,65.9,30.01,ENE,65,5.0,5.0,87,0.00,,---,0.00,VWS V14.01,2013-08-30 06:08:00,
2013-08-30 02:13:00,70.0,66.0,30.01,East,91,5.0,6.0,87,0.00,,---,0.00,VWS V14.01,2013-08-30 06:13:00,
2013-08-30 02:18:00,70.1,66.1,30.01,ENE,68,1.0,6.0,87,0.00,,---,0.00,VWS V14.01,2013-08-30 06:18:00,
2013-08-30 02:23:00,69.9,65.9,30.01,NE,37,2.0,6.0,87,0.00,,---,0.00,VWS V14.01,2013-08-30 06:23:00,
2013-08-30 02:28:00,69.8,65.8,30.01,NNE,31,0.0,6.0,87,0.00,,---,0.00,VWS V14.01,2013-08-30 06:28:00,
2013-08-30 02:30:00,69.7,65.7,30.01,NNE,32,2.0,6.0,87,0.00,,---,0.00,VWS V14.01,2013-08-30 06:30:00,
2013-08-30 02:33:00,69.7,65.7,30.01,NNE,30,3.0,3.0,87,0.00,,---,0.00,VWS V14.01,2013-08-30 06:33:00,
2013-08-30 02:38:00,69.7,65.7,30.01,NE,43,0.0,3.0,87,0.00,,---,0.00,VWS V14.01,2013-08-30 06:38:00,
2013-08-30 02:43:00,69.6,65.6,30.00,NE,34,0.0,4.0,87,0.00,,---,0.00,VWS V14.01,2013-08-30 06:43:00,
2013-08-30 02:48:00,69.6,65.6,30.00,NE,48,1.0,4.0,87,0.00,,---,0.00,VWS V14.01,2013-08-30 06:48:00,
2013-08-30 02:53:00,69.5,65.5,30.00,NE,52,1.0,4.0,87,0.00,,---,0.00,VWS V14.01,2013-08-30 06:53:00,
2013-08-30 02:58:00,69.5,65.5,30.00,NE,56,0.0,4.0,87,0.00,,---,0.00,VWS V14.01,2013-08-30 06:58:00,
2013-08-30 03:03:00,69.6,65.9,30.00,NNE,20,0.0,4.0,88,0.00,,---,0.00,VWS V14.01,2013-08-30 07:03:00,
2013-08-30 03:08:00,69.6,65.9,30.00,NE,35,0.0,4.0,88,0.00,,---,0.00,VWS V14.01,2013-08-30 07:08:00,
2013-08-30 03:13:00,69.4,65.7,30.00,NE,35,0.0,4.0,88,0.00,,---,0.00,VWS V14.01,2013-08-30 07:13:00,
2013-08-30 03:18:00,69.1,65.4,30.00,NE,35,0.0,4.0,88,0.00,,---,0.00,VWS V14.01,2013-08-30 07:18:00,
2013-08-30 03:24:00,69.1,65.4,30.01,NE,34,0.0,4.0,88,0.00,,---,0.00,VWS V14.01,2013-08-30 07:24:00,
2013-08-30 03:29:00,69.0,65.3,30.00,NE,35,0.0,4.0,88,0.00,,---,0.00,VWS V14.01,2013-08-30 07:29:00,
2013-08-30 03:30:00,68.9,65.2,30.00,North,353,0.0,4.0,88,0.00,,---,0.00,VWS V14.01,2013-08-30 07:30:00,
2013-08-30 03:34:00,68.8,65.1,30.00,North,353,0.0,0.0,88,0.00,,---,0.00,VWS V14.01,2013-08-30 07:34:00,
2013-08-30 03:39:00,68.6,65.2,30.00,North,352,0.0,0.0,89,0.00,,---,0.00,VWS V14.01,2013-08-30 07:39:00,
2013-08-30 03:44:00,68.6,65.2,30.00,West,278,0.0,0.0,89,0.00,,---,0.00,VWS V14.01,2013-08-30 07:44:00,
2013-08-30 03:49:00,68.6,65.6,30.00,West,278,0.0,0.0,90,0.00,,---,0.00,VWS V14.01,2013-08-30 07:49:00,
2013-08-30 03:54:00,68.6,65.6,30.00,West,279,0.0,0.0,90,0.00,,---,0.00,VWS V14.01,2013-08-30 07:54:00,
2013-08-30 03:59:00,68.5,65.5,30.00,NNW,346,1.0,2.0,90,0.00,,---,0.00,VWS V14.01,2013-08-30 07:59:00,
2013-08-30 04:00:00,68.6,65.6,30.00,NNW,333,0.0,2.0,90,0.00,,---,0.00,VWS V14.01,2013-08-30 08:00:00,
2013-08-30 04:04:00,68.5,65.5,30.00,NNW,334,0.0,0.0,90,0.00,,---,0.00,VWS V14.01,2013-08-30 08:04:00,
2013-08-30 04:09:00,68.6,65.6,30.00,NNW,334,0.0,0.0,90,0.00,,---,0.00,VWS V14.01,2013-08-30 08:09:00,
2013-08-30 04:14:00,68.5,65.5,30.00,North,352,0.0,0.0,90,0.00,,---,0.00,VWS V14.01,2013-08-30 08:14:00,
2013-08-30 04:19:00,68.6,65.6,30.00,North,351,0.0,0.0,90,0.00,,---,0.00,VWS V14.01,2013-08-30 08:19:00,
2013-08-30 04:24:00,68.4,65.4,30.00,North,351,0.0,0.0,90,0.00,,---,0.00,VWS V14.01,2013-08-30 08:24:00,
2013-08-30 04:29:00,68.4,65.4,30.00,North,351,0.0,0.0,90,0.00,,---,0.00,VWS V14.01,2013-08-30 08:29:00,
2013-08-30 04:30:00,68.3,65.3,30.00,North,351,0.0,0.0,90,0.00,,---,0.00,VWS V14.01,2013-08-30 08:30:00,
2013-08-30 04:34:00,68.2,65.2,30.00,North,351,0.0,0.0,90,0.00,,---,0.00,VWS V14.01,2013-08-30 08:34:00,
2013-08-30 04:39:00,68.2,65.5,30.00,NNW,338,0.0,0.0,91,0.00,,---,0.00,VWS V14.01,2013-08-30 08:39:00,
2013-08-30 04:44:00,68.3,65.6,30.00,NW,314,0.0,0.0,91,0.00,,---,0.00,VWS V14.01,2013-08-30 08:44:00,
2013-08-30 04:49:00,68.4,66.0,30.00,NW,321,0.0,0.0,92,0.00,,---,0.00,VWS V14.01,2013-08-30 08:49:00,
2013-08-30 04:54:00,68.5,65.8,30.00,WNW,293,0.0,2.0,91,0.00,,---,0.00,VWS V14.01,2013-08-30 08:54:00,
2013-08-30 04:59:00,68.6,66.2,30.00,WNW,295,0.0,2.0,92,0.00,,---,0.00,VWS V14.01,2013-08-30 08:59:00,
2013-08-30 05:00:00,68.6,66.2,30.00,WNW,294,0.0,2.0,92,0.00,,---,0.00,VWS V14.01,2013-08-30 09:00:00,
2013-08-30 05:04:00,68.6,66.2,30.00,WNW,294,0.0,0.0,92,0.00,,---,0.00,VWS V14.01,2013-08-30 09:04:00,
2013-08-30 05:09:00,68.6,66.2,30.01,WNW,295,1.0,1.0,92,0.00,,---,0.00,VWS V14.01,2013-08-30 09:09:00,
2013-08-30 05:14:00,68.6,66.2,30.00,WNW,293,1.0,2.0,92,0.00,,---,0.00,VWS V14.01,2013-08-30 09:14:00,
2013-08-30 05:19:00,68.7,66.6,30.00,WNW,290,0.0,2.0,93,0.00,,---,0.00,VWS V14.01,2013-08-30 09:19:00,
2013-08-30 05:24:00,68.8,66.7,30.00,West,266,0.0,2.0,93,0.00,,---,0.00,VWS V14.01,2013-08-30 09:24:00,
2013-08-30 05:29:00,68.9,66.8,30.00,West,269,0.0,2.0,93,0.00,,---,0.00,VWS V14.01,2013-08-30 09:29:00,
2013-08-30 05:30:00,68.9,66.8,30.00,WNW,292,0.0,2.0,93,0.00,,---,0.00,VWS V14.01,2013-08-30 09:30:00,
2013-08-30 05:34:00,68.9,66.8,30.00,WNW,283,2.0,2.0,93,0.00,,---,0.00,VWS V14.01,2013-08-30 09:34:00,
2013-08-30 05:39:00,69.0,67.2,30.00,West,266,1.0,2.0,94,0.00,,---,0.00,VWS V14.01,2013-08-30 09:39:00,
2013-08-30 05:44:00,69.0,66.9,30.00,West,269,2.0,3.0,93,0.00,,---,0.00,VWS V14.01,2013-08-30 09:44:00,
2013-08-30 05:49:00,69.0,66.9,30.00,West,266,2.0,4.0,93,0.00,,---,0.00,VWS V14.01,2013-08-30 09:49:00,
2013-08-30 05:54:00,69.1,67.3,30.00,WSW,257,3.0,4.0,94,0.00,,---,0.00,VWS V14.01,2013-08-30 09:54:00,
2013-08-30 05:59:00,69.0,67.2,30.01,WSW,257,3.0,5.0,94,0.00,,---,0.00,VWS V14.01,2013-08-30 09:59:00,
2013-08-30 06:00:00,69.0,67.2,30.01,West,261,4.0,5.0,94,0.00,,---,0.00,VWS V14.01,2013-08-30 10:00:00,
2013-08-30 06:04:00,69.0,67.2,30.01,WNW,288,3.0,5.0,94,0.00,,---,0.00,VWS V14.01,2013-08-30 10:04:00,
2013-08-30 06:09:00,68.9,67.1,30.01,WSW,258,4.0,5.0,94,0.00,,---,0.00,VWS V14.01,2013-08-30 10:09:00,
2013-08-30 06:14:00,68.9,67.1,30.02,West,273,3.0,5.0,94,0.00,,---,0.00,VWS V14.01,2013-08-30 10:14:00,
2013-08-30 06:19:00,68.9,67.1,30.02,WNW,288,3.0,6.0,94,0.00,,---,0.00,VWS V14.01,2013-08-30 10:19:00,
2013-08-30 06:24:00,68.9,66.8,30.02,NW,310,2.0,6.0,93,0.00,,---,0.00,VWS V14.01,2013-08-30 10:24:00,
2013-08-30 06:29:00,69.0,66.9,30.02,WSW,253,1.0,6.0,93,0.00,,---,0.00,VWS V14.01,2013-08-30 10:29:00,
2013-08-30 06:30:00,69.0,66.9,30.02,WSW,250,1.0,6.0,93,0.00,,---,0.00,VWS V14.01,2013-08-30 10:30:00,
2013-08-30 06:34:00,69.1,67.0,30.02,WNW,289,0.0,4.0,93,0.00,,---,0.00,VWS V14.01,2013-08-30 10:34:00,
2013-08-30 06:39:00,69.0,66.9,30.02,WNW,284,1.0,4.0,93,0.00,,---,0.00,VWS V14.01,2013-08-30 10:39:00,
2013-08-30 06:44:00,68.9,66.8,30.02,NW,309,2.0,5.0,93,0.00,,---,0.00,VWS V14.01,2013-08-30 10:44:00,
2013-08-30 06:49:00,68.8,66.7,30.02,NNW,347,1.0,5.0,93,0.00,,---,0.00,VWS V14.01,2013-08-30 10:49:00,
2013-08-30 06:54:00,68.7,66.6,30.02,WNW,298,1.0,5.0,93,0.00,,---,0.00,VWS V14.01,2013-08-30 10:54:00,
2013-08-30 06:59:00,68.7,66.6,30.02,NW,315,0.0,5.0,93,0.00,,---,0.00,VWS V14.01,2013-08-30 10:59:00,
2013-08-30 07:00:00,68.8,66.7,30.02,NW,315,0.0,5.0,93,0.00,,---,0.00,VWS V14.01,2013-08-30 11:00:00,
2013-08-30 07:04:00,68.8,66.7,30.02,West,272,0.0,1.0,93,0.00,,---,0.00,VWS V14.01,2013-08-30 11:04:00,
2013-08-30 07:09:00,68.8,66.7,30.02,WNW,290,1.0,2.0,93,0.00,,---,0.00,VWS V14.01,2013-08-30 11:09:00,
2013-08-30 07:14:00,69.0,66.9,30.02,WNW,290,0.0,2.0,93,0.00,,---,0.00,VWS V14.01,2013-08-30 11:14:00,
2013-08-30 07:19:00,69.2,67.1,30.02,WNW,295,0.0,2.0,93,0.00,,---,0.00,VWS V14.01,2013-08-30 11:19:00,
2013-08-30 07:24:00,69.6,67.2,30.02,WNW,293,0.0,2.0,92,0.00,,---,0.00,VWS V14.01,2013-08-30 11:24:00,
2013-08-30 07:29:00,70.1,67.7,30.02,NW,314,2.0,2.0,92,0.00,,---,0.00,VWS V14.01,2013-08-30 11:29:00,
2013-08-30 07:30:00,70.2,67.4,30.02,NW,304,2.0,2.0,91,0.00,,---,0.00,VWS V14.01,2013-08-30 11:30:00,
2013-08-30 07:34:00,70.4,67.3,30.02,NW,313,3.0,3.0,90,0.00,,---,0.00,VWS V14.01,2013-08-30 11:34:00,
2013-08-30 07:39:00,70.6,67.8,30.02,North,7,2.0,3.0,91,0.00,,---,0.00,VWS V14.01,2013-08-30 11:39:00,
2013-08-30 07:44:00,70.8,67.7,30.03,NW,322,1.0,4.0,90,0.00,,---,0.00,VWS V14.01,2013-08-30 11:44:00,
2013-08-30 07:49:00,71.2,68.1,30.02,WNW,303,0.0,4.0,90,0.00,,---,0.00,VWS V14.01,2013-08-30 11:49:00,
2013-08-30 07:54:00,71.5,68.1,30.02,NW,306,2.0,4.0,89,0.00,,---,0.00,VWS V14.01,2013-08-30 11:54:00,
2013-08-30 07:59:00,71.5,67.8,30.03,WNW,285,3.0,4.0,88,0.00,,---,0.00,VWS V14.01,2013-08-30 11:59:00,
2013-08-30 08:00:00,71.3,67.6,30.02,West,280,4.0,4.0,88,0.00,,---,0.00,VWS V14.01,2013-08-30 12:00:00,
2013-08-30 08:04:00,70.9,67.5,30.03,WNW,283,4.0,4.0,89,0.00,,---,0.00,VWS V14.01,2013-08-30 12:04:00,
2013-08-30 08:09:00,70.7,67.6,30.03,WSW,243,2.0,5.0,90,0.00,,---,0.00,VWS V14.01,2013-08-30 12:09:00,
2013-08-30 08:14:00,70.7,67.6,30.03,NW,306,3.0,5.0,90,0.00,,---,0.00,VWS V14.01,2013-08-30 12:14:00,
2013-08-30 08:20:00,71.0,67.6,30.03,NW,304,4.0,6.0,89,0.00,,---,0.00,VWS V14.01,2013-08-30 12:20:00,
2013-08-30 08:25:00,71.0,67.6,30.03,WNW,288,5.0,7.0,89,0.00,,---,0.00,VWS V14.01,2013-08-30 12:25:00,
2013-08-30 08:30:00,71.0,67.6,30.03,WNW,295,5.0,7.0,89,0.00,,---,0.00,VWS V14.01,2013-08-30 12:30:00,
2013-08-30 08:35:00,71.0,67.6,30.03,WSW,257,2.0,6.0,89,0.00,,---,0.00,VWS V14.01,2013-08-30 12:35:00,
2013-08-30 08:40:00,71.2,67.5,30.03,WNW,302,2.0,6.0,88,0.00,,---,0.00,VWS V14.01,2013-08-30 12:40:00,
2013-08-30 08:45:00,71.4,67.3,30.03,WNW,297,2.0,6.0,87,0.00,,---,0.00,VWS V14.01,2013-08-30 12:45:00,
2013-08-30 08:50:00,71.9,67.5,30.03,WNW,283,2.0,6.0,86,0.00,,---,0.00,VWS V14.01,2013-08-30 12:50:00,
2013-08-30 08:55:00,72.7,67.9,30.03,SW,233,1.0,6.0,85,0.00,,---,0.00,VWS V14.01,2013-08-30 12:55:00,
2013-08-30 09:00:00,73.6,68.1,30.03,SW,224,0.0,6.0,83,0.00,,---,0.00,VWS V14.01,2013-08-30 13:00:00,
2013-08-30 09:05:00,74.9,68.7,30.02,SW,230,0.0,3.0,81,0.00,,---,0.00,VWS V14.01,2013-08-30 13:05:00,
2013-08-30 09:10:00,75.5,67.0,30.02,WSW,239,1.0,4.0,75,0.00,,---,0.00,VWS V14.01,2013-08-30 13:10:00,
2013-08-30 09:15:00,75.9,68.6,30.03,SW,217,0.0,4.0,78,0.00,,---,0.00,VWS V14.01,2013-08-30 13:15:00,
2013-08-30 09:20:00,77.2,68.7,30.03,SW,226,0.0,4.0,75,0.00,,---,0.00,VWS V14.01,2013-08-30 13:20:00,
2013-08-30 09:25:00,78.4,69.0,30.03,SW,223,0.0,4.0,73,0.00,,---,0.00,VWS V14.01,2013-08-30 13:25:00,
2013-08-30 09:30:00,78.9,68.7,30.02,ESE,123,1.0,4.0,71,0.00,,---,0.00,VWS V14.01,2013-08-30 13:30:00,
2013-08-30 09:35:00,79.3,69.1,30.02,South,176,0.0,2.0,71,0.00,,---,0.00,VWS V14.01,2013-08-30 13:35:00,
2013-08-30 09:40:00,79.5,68.9,30.02,WSW,237,2.0,3.0,70,0.00,,---,0.00,VWS V14.01,2013-08-30 13:40:00,
2013-08-30 09:45:00,79.1,68.5,30.03,ESE,116,2.0,4.0,70,0.00,,---,0.00,VWS V14.01,2013-08-30 13:45:00,
2013-08-30 09:50:00,78.9,69.1,30.02,WNW,299,1.0,4.0,72,0.00,,---,0.00,VWS V14.01,2013-08-30 13:50:00,
2013-08-30 09:55:00,78.8,68.6,30.02,WNW,293,2.0,4.0,71,0.00,,---,0.00,VWS V14.01,2013-08-30 13:55:00,
2013-08-30 10:00:00,78.8,68.6,30.03,WSW,240,3.0,4.0,71,0.00,,---,0.00,VWS V14.01,2013-08-30 14:00:00,
2013-08-30 10:05:00,78.8,68.2,30.03,West,262,3.0,4.0,70,0.00,,---,0.00,VWS V14.01,2013-08-30 14:05:00,
2013-08-30 10:10:00,78.8,67.8,30.03,SW,221,4.0,6.0,69,0.00,,---,0.00,VWS V14.01,2013-08-30 14:10:00,
2013-08-30 10:15:00,79.2,68.6,30.03,ENE,59,3.0,6.0,70,0.00,,---,0.00,VWS V14.01,2013-08-30 14:15:00,
2013-08-30 10:20:00,79.4,68.3,30.02,South,176,0.0,6.0,69,0.00,,---,0.00,VWS V14.01,2013-08-30 14:20:00,
2013-08-30 10:25:00,78.6,68.0,30.03,East,91,3.0,7.0,70,0.00,,---,0.00,VWS V14.01,2013-08-30 14:25:00,
2013-08-30 10:30:00,78.0,68.2,30.03,SSW,201,2.0,7.0,72,0.00,,---,0.00,VWS V14.01,2013-08-30 14:30:00,
2013-08-30 10:35:00,77.6,67.5,30.03,West,281,5.0,6.0,71,0.00,,---,0.00,VWS V14.01,2013-08-30 14:35:00,
2013-08-30 10:40:00,77.0,67.7,30.02,East,83,4.0,6.0,73,0.00,,---,0.00,VWS V14.01,2013-08-30 14:40:00,
2013-08-30 10:45:00,76.4,67.9,30.03,SW,233,4.0,6.0,75,0.00,,---,0.00,VWS V14.01,2013-08-30 14:45:00,
2013-08-30 10:50:00,75.9,67.8,30.02,West,275,1.0,7.0,76,0.00,,---,0.00,VWS V14.01,2013-08-30 14:50:00,
2013-08-30 10:55:00,75.6,67.5,30.02,West,261,1.0,7.0,76,0.00,,---,0.00,VWS V14.01,2013-08-30 14:55:00,
2013-08-30 11:00:00,75.4,67.7,30.02,SSW,203,4.0,7.0,77,0.00,,---,0.00,VWS V14.01,2013-08-30 15:00:00,
2013-08-30 11:05:00,75.2,67.1,30.02,SSW,204,2.0,9.0,76,0.00,,---,0.00,VWS V14.01,2013-08-30 15:05:00,
2013-08-30 11:10:00,75.0,67.3,30.03,WSW,243,2.0,9.0,77,0.00,,---,0.00,VWS V14.01,2013-08-30 15:10:00,
2013-08-30 11:15:00,75.1,67.8,30.02,WSW,257,6.0,9.0,78,0.00,,---,0.00,VWS V14.01,2013-08-30 15:15:00,
2013-08-30 11:20:00,74.9,67.6,30.02,West,276,2.0,9.0,78,0.00,,---,0.00,VWS V14.01,2013-08-30 15:20:00,
2013-08-30 11:25:00,75.1,68.2,30.02,NNE,25,2.0,10.0,79,0.00,,---,0.00,VWS V14.01,2013-08-30 15:25:00,
2013-08-30 11:30:00,75.2,67.9,30.02,WSW,250,7.0,10.0,78,0.00,,---,0.00,VWS V14.01,2013-08-30 15:30:00,
2013-08-30 11:35:00,75.7,68.7,30.02,SSE,160,5.0,7.0,79,0.00,,---,0.00,VWS V14.01,2013-08-30 15:35:00,
2013-08-30 11:40:00,75.9,68.6,30.02,East,87,4.0,7.0,78,0.00,,---,0.00,VWS V14.01,2013-08-30 15:40:00,
2013-08-30 11:46:00,76.0,68.7,30.01,SSE,166,4.0,9.0,78,0.00,,---,0.00,VWS V14.01,2013-08-30 15:46:00,
2013-08-30 11:51:00,76.2,68.8,30.01,NW,316,3.0,9.0,78,0.00,,---,0.00,VWS V14.01,2013-08-30 15:51:00,
2013-08-30 11:56:00,76.1,68.8,30.01,WNW,297,3.0,10.0,78,0.00,,---,0.00,VWS V14.01,2013-08-30 15:56:00,
2013-08-30 12:00:00,75.8,68.5,30.01,WSW,240,3.0,11.0,78,0.00,,---,0.00,VWS V14.01,2013-08-30 16:00:00,
2013-08-30 12:01:00,75.8,68.5,30.01,SW,214,6.0,11.0,78,0.00,,---,0.00,VWS V14.01,2013-08-30 16:01:00,
2013-08-30 12:05:00,75.7,68.7,30.01,SSE,165,2.0,10.0,79,0.00,,---,0.00,VWS V14.01,2013-08-30 16:05:00,
2013-08-30 12:11:00,75.4,68.4,30.01,SSE,159,3.0,11.0,79,0.00,,---,0.00,VWS V14.01,2013-08-30 16:11:00,
2013-08-30 12:16:00,75.3,68.3,30.01,SW,229,7.0,12.0,79,0.00,,---,0.00,VWS V14.01,2013-08-30 16:16:00,
2013-08-30 12:21:00,75.3,68.3,30.01,SW,233,7.0,12.0,79,0.00,,---,0.00,VWS V14.01,2013-08-30 16:21:00,
2013-08-30 12:26:00,75.5,68.9,30.00,SW,217,4.0,12.0,80,0.00,,---,0.00,VWS V14.01,2013-08-30 16:26:00,
2013-08-30 12:30:00,75.7,69.1,30.00,South,190,5.0,12.0,80,0.00,,---,0.00,VWS V14.01,2013-08-30 16:30:00,
2013-08-30 12:31:00,75.7,69.1,30.00,ESE,112,5.0,12.0,80,0.00,,---,0.00,VWS V14.01,2013-08-30 16:31:00,
2013-08-30 12:36:00,75.9,69.3,30.00,WSW,248,4.0,10.0,80,0.00,,---,0.00,VWS V14.01,2013-08-30 16:36:00,
2013-08-30 12:41:00,76.9,69.5,30.00,West,271,4.0,10.0,78,0.00,,---,0.00,VWS V14.01,2013-08-30 16:41:00,
2013-08-30 12:46:00,77.3,69.2,30.00,East,98,7.0,10.0,76,0.00,,---,0.00,VWS V14.01,2013-08-30 16:46:00,
2013-08-30 12:51:00,78.3,70.1,29.99,SSE,152,6.0,10.0,76,0.00,,---,0.00,VWS V14.01,2013-08-30 16:51:00,
2013-08-30 12:56:00,78.7,70.1,29.99,SW,218,3.0,11.0,75,0.00,,---,0.00,VWS V14.01,2013-08-30 16:56:00,
2013-08-30 13:00:00,78.8,69.8,29.99,SSE,160,4.0,11.0,74,0.00,,---,0.00,VWS V14.01,2013-08-30 17:00:00,
2013-08-30 13:01:00,78.9,69.9,29.99,SSW,194,6.0,11.0,74,0.00,,---,0.00,VWS V14.01,2013-08-30 17:01:00,
2013-08-30 13:06:00,78.4,69.4,29.99,West,264,3.0,12.0,74,0.00,,---,0.00,VWS V14.01,2013-08-30 17:06:00,
2013-08-30 13:11:00,78.2,70.0,29.99,ENE,74,9.0,12.0,76,0.00,,---,0.00,VWS V14.01,2013-08-30 17:11:00,
2013-08-30 13:16:00,78.1,69.9,29.99,SSW,196,9.0,12.0,76,0.00,,---,0.00,VWS V14.01,2013-08-30 17:16:00,
2013-08-30 13:21:00,77.4,69.6,29.99,ESE,120,10.0,13.0,77,0.00,,---,0.00,VWS V14.01,2013-08-30 17:21:00,
2013-08-30 13:26:00,77.0,69.6,29.99,South,185,8.0,13.0,78,0.00,,---,0.00,VWS V14.01,2013-08-30 17:26:00,
2013-08-30 13:30:00,76.6,69.6,29.99,ENE,70,9.0,13.0,79,0.00,,---,0.00,VWS V14.01,2013-08-30 17:30:00,
2013-08-30 13:31:00,76.6,69.6,29.99,SSE,150,6.0,13.0,79,0.00,,---,0.00,VWS V14.01,2013-08-30 17:31:00,
2013-08-30 13:36:00,76.1,69.5,29.99,South,178,7.0,11.0,80,0.00,,---,0.00,VWS V14.01,2013-08-30 17:36:00,
2013-08-30 13:41:00,75.8,69.9,29.99,SSE,159,9.0,12.0,82,0.00,,---,0.00,VWS V14.01,2013-08-30 17:41:00,
2013-08-30 13:46:00,75.3,69.8,29.98,South,178,3.0,13.0,83,0.00,,---,0.00,VWS V14.01,2013-08-30 17:46:00,
2013-08-30 13:51:00,75.2,69.7,29.98,SW,222,7.0,13.0,83,0.00,,---,0.00,VWS V14.01,2013-08-30 17:51:00,
2013-08-30 13:56:00,75.4,69.9,29.98,WNW,300,7.0,13.0,83,0.00,,---,0.00,VWS V14.01,2013-08-30 17:56:00,
2013-08-30 14:00:00,75.9,70.0,29.98,SW,229,9.0,13.0,82,0.00,,---,0.00,VWS V14.01,2013-08-30 18:00:00,
2013-08-30 14:01:00,75.9,70.0,29.98,ENE,78,8.0,13.0,82,0.00,,---,0.00,VWS V14.01,2013-08-30 18:01:00,
2013-08-30 14:06:00,75.5,69.6,29.98,WSW,243,5.0,12.0,82,0.00,,---,0.00,VWS V14.01,2013-08-30 18:06:00,
2013-08-30 14:11:00,75.5,70.0,29.98,ESE,109,9.0,12.0,83,0.00,,---,0.00,VWS V14.01,2013-08-30 18:11:00,
2013-08-30 14:16:00,76.1,70.2,29.97,NE,44,8.0,13.0,82,0.00,,---,0.00,VWS V14.01,2013-08-30 18:16:00,
2013-08-30 14:21:00,76.7,70.1,29.98,South,182,7.0,13.0,80,0.00,,---,0.00,VWS V14.01,2013-08-30 18:21:00,
2013-08-30 14:26:00,77.2,70.6,29.97,ENE,75,6.0,13.0,80,0.00,,---,0.00,VWS V14.01,2013-08-30 18:26:00,
2013-08-30 14:30:00,77.6,70.9,29.97,West,278,5.0,14.0,80,0.00,,---,0.00,VWS V14.01,2013-08-30 18:30:00,
2013-08-30 14:31:00,77.6,70.9,29.97,SSW,197,12.0,14.0,80,0.00,,---,0.00,VWS V14.01,2013-08-30 18:31:00,
2013-08-30 14:36:00,77.8,70.8,29.97,SW,232,6.0,13.0,79,0.00,,---,0.00,VWS V14.01,2013-08-30 18:36:00,
2013-08-30 14:41:00,77.8,70.4,29.96,NNE,16,7.0,13.0,78,0.00,,---,0.00,VWS V14.01,2013-08-30 18:41:00,
2013-08-30 14:46:00,78.1,70.3,29.97,WNW,293,8.0,13.0,77,0.00,,---,0.00,VWS V14.01,2013-08-30 18:46:00,
2013-08-30 14:51:00,78.1,69.9,29.97,WSW,255,7.0,13.0,76,0.00,,---,0.00,VWS V14.01,2013-08-30 18:51:00,
2013-08-30 14:56:00,78.1,70.3,29.97,SE,145,11.0,13.0,77,0.00,,---,0.00,VWS V14.01,2013-08-30 18:56:00,
2013-08-30 15:00:00,78.1,69.9,29.97,South,180,5.0,16.0,76,0.00,,---,0.00,VWS V14.01,2013-08-30 19:00:00,
2013-08-30 15:01:00,78.0,69.8,29.97,SE,132,4.0,16.0,76,0.00,,---,0.00,VWS V14.01,2013-08-30 19:01:00,
2013-08-30 15:06:00,78.3,70.1,29.96,SSW,195,8.0,12.0,76,0.00,,---,0.00,VWS V14.01,2013-08-30 19:06:00,
2013-08-30 15:11:00,78.2,69.6,29.95,West,279,4.0,14.0,75,0.00,,---,0.00,VWS V14.01,2013-08-30 19:11:00,
2013-08-30 15:16:00,77.9,69.3,29.96,SSE,162,11.0,15.0,75,0.00,,---,0.00,VWS V14.01,2013-08-30 19:16:00,
2013-08-30 15:21:00,77.6,69.4,29.96,SW,236,11.0,15.0,76,0.00,,---,0.00,VWS V14.01,2013-08-30 19:21:00,
2013-08-30 15:26:00,77.3,69.5,29.96,ESE,122,7.0,15.0,77,0.00,,---,0.00,VWS V14.01,2013-08-30 19:26:00,
2013-08-30 15:30:00,77.3,69.5,29.95,SW,216,6.0,15.0,77,0.00,,---,0.00,VWS V14.01,2013-08-30 19:30:00,
2013-08-30 15:31:00,77.3,69.5,29.95,SSW,205,11.0,11.0,77,0.00,,---,0.00,VWS V14.01,2013-08-30 19:31:00,
2013-08-30 15:36:00,77.5,69.7,29.95,ESE,103,6.0,15.0,77,0.00,,---,0.00,VWS V14.01,2013-08-30 19:36:00,
2013-08-30 15:41:00,77.7,69.9,29.95,SE,146,7.0,15.0,77,0.00,,---,0.00,VWS V14.01,2013-08-30 19:41:00,
2013-08-30 15:46:00,78.0,70.2,29.95,SSW,204,7.0,15.0,77,0.00,,---,0.00,VWS V14.01,2013-08-30 19:46:00,
2013-08-30 15:51:00,77.9,69.7,29.95,SW,214,9.0,15.0,76,0.00,,---,0.00,VWS V14.01,2013-08-30 19:51:00,
2013-08-30 15:56:00,77.9,69.7,29.95,North,4,5.0,15.0,76,0.00,,---,0.00,VWS V14.01,2013-08-30 19:56:00,
2013-08-30 16:00:00,77.1,69.3,29.94,NE,54,7.0,15.0,77,0.00,,---,0.00,VWS V14.01,2013-08-30 20:00:00,
2013-08-30 16:01:00,77.1,69.3,29.94,SW,236,7.0,7.0,77,0.00,,---,0.00,VWS V14.01,2013-08-30 20:01:00,
2013-08-30 16:06:00,76.7,69.7,29.95,WSW,243,12.0,13.0,79,0.00,,---,0.00,VWS V14.01,2013-08-30 20:06:00,
2013-08-30 16:11:00,76.3,69.7,29.95,SW,219,11.0,14.0,80,0.00,,---,0.00,VWS V14.01,2013-08-30 20:11:00,
2013-08-30 16:16:00,76.3,69.7,29.95,SE,130,13.0,14.0,80,0.00,,---,0.00,VWS V14.01,2013-08-30 20:16:00,
2013-08-30 16:21:00,76.2,69.6,29.94,SSW,210,10.0,18.0,80,0.00,,---,0.00,VWS V14.01,2013-08-30 20:21:00,
2013-08-30 16:26:00,76.4,69.8,29.94,South,174,7.0,18.0,80,0.00,,---,0.00,VWS V14.01,2013-08-30 20:26:00,
2013-08-30 16:30:00,76.4,70.1,29.94,SW,217,4.0,18.0,81,0.00,,---,0.00,VWS V14.01,2013-08-30 20:30:00,
2013-08-30 16:31:00,76.4,70.1,29.94,SW,232,6.0,7.0,81,0.00,,---,0.00,VWS V14.01,2013-08-30 20:31:00,
2013-08-30 16:36:00,76.5,69.9,29.94,ENE,57,5.0,17.0,80,0.00,,---,0.00,VWS V14.01,2013-08-30 20:36:00,
2013-08-30 16:41:00,76.4,69.8,29.94,ENE,65,5.0,17.0,80,0.00,,---,0.00,VWS V14.01,2013-08-30 20:41:00,
2013-08-30 16:46:00,76.1,69.8,29.94,SSE,149,5.0,17.0,81,0.00,,---,0.00,VWS V14.01,2013-08-30 20:46:00,
2013-08-30 16:51:00,75.8,69.6,29.94,South,183,6.0,17.0,81,0.00,,---,0.00,VWS V14.01,2013-08-30 20:51:00,
2013-08-30 16:56:00,75.4,69.5,29.95,East,92,5.0,17.0,82,0.00,,---,0.00,VWS V14.01,2013-08-30 20:56:00,
2013-08-30 17:00:00,75.4,69.9,29.95,SW,218,16.0,17.0,83,0.00,,---,0.00,VWS V14.01,2013-08-30 21:00:00,
2013-08-30 17:01:00,75.4,69.9,29.94,SW,226,8.0,16.0,83,0.00,,---,0.00,VWS V14.01,2013-08-30 21:01:00,
2013-08-30 17:06:00,75.4,69.9,29.94,East,86,8.0,16.0,83,0.00,,---,0.00,VWS V14.01,2013-08-30 21:06:00,
2013-08-30 17:11:00,75.2,70.0,29.94,WSW,255,6.0,16.0,84,0.00,,---,0.00,VWS V14.01,2013-08-30 21:11:00,
2013-08-30 17:16:00,75.0,69.8,29.94,SW,214,8.0,16.0,84,0.00,,---,0.00,VWS V14.01,2013-08-30 21:16:00,
2013-08-30 17:21:00,74.9,69.7,29.94,SW,217,5.0,16.0,84,0.00,,---,0.00,VWS V14.01,2013-08-30 21:21:00,
2013-08-30 17:26:00,74.9,69.7,29.94,WSW,242,5.0,16.0,84,0.00,,---,0.00,VWS V14.01,2013-08-30 21:26:00,
2013-08-30 17:30:00,74.8,69.7,29.94,WSW,251,6.0,16.0,84,0.00,,---,0.00,VWS V14.01,2013-08-30 21:30:00,
2013-08-30 17:31:00,74.8,69.7,29.94,East,95,7.0,11.0,84,0.00,,---,0.00,VWS V14.01,2013-08-30 21:31:00,
2013-08-30 17:36:00,74.7,69.6,29.94,South,184,4.0,12.0,84,0.00,,---,0.00,VWS V14.01,2013-08-30 21:36:00,
2013-08-30 17:41:00,74.8,70.0,29.94,WSW,255,5.0,12.0,85,0.00,,---,0.00,VWS V14.01,2013-08-30 21:41:00,
2013-08-30 17:46:00,74.8,70.0,29.94,West,272,6.0,14.0,85,0.00,,---,0.00,VWS V14.01,2013-08-30 21:46:00,
2013-08-30 17:51:00,74.9,70.4,29.94,South,191,9.0,14.0,86,0.00,,---,0.00,VWS V14.01,2013-08-30 21:51:00,
2013-08-30 17:56:00,74.9,70.1,29.94,SW,232,7.0,14.0,85,0.00,,---,0.00,VWS V14.01,2013-08-30 21:56:00,
2013-08-30 18:00:00,74.9,70.1,29.94,East,96,4.0,15.0,85,0.00,,---,0.00,VWS V14.01,2013-08-30 22:00:00,
2013-08-30 18:01:00,74.9,70.1,29.94,SSW,198,6.0,8.0,85,0.00,,---,0.00,VWS V14.01,2013-08-30 22:01:00,
2013-08-30 18:06:00,74.9,70.1,29.94,South,184,6.0,12.0,85,0.00,,---,0.00,VWS V14.01,2013-08-30 22:06:00,
2013-08-30 18:11:00,74.6,70.1,29.93,WNW,301,4.0,13.0,86,0.00,,---,0.00,VWS V14.01,2013-08-30 22:11:00,
2013-08-30 18:16:00,74.5,70.0,29.93,SW,236,9.0,13.0,86,0.00,,---,0.00,VWS V14.01,2013-08-30 22:16:00,
2013-08-30 18:21:00,74.3,69.8,29.93,South,169,5.0,13.0,86,0.00,,---,0.00,VWS V14.01,2013-08-30 22:21:00,
2013-08-30 18:26:00,74.2,70.1,29.93,SW,224,5.0,13.0,87,0.00,,---,0.00,VWS V14.01,2013-08-30 22:26:00,
2013-08-30 18:30:00,74.1,70.3,29.93,SSW,206,10.0,13.0,88,0.00,,---,0.00,VWS V14.01,2013-08-30 22:30:00,
2013-08-30 18:31:00,74.1,70.3,29.93,SSW,206,10.0,13.0,88,0.00,,---,0.00,VWS V14.01,2013-08-30 22:31:00,
2013-08-30 18:36:00,74.0,70.2,29.92,West,278,6.0,10.0,88,0.00,,---,0.00,VWS V14.01,2013-08-30 22:36:00,
2013-08-30 18:41:00,73.8,70.0,29.92,NNE,32,5.0,13.0,88,0.00,,---,0.00,VWS V14.01,2013-08-30 22:41:00,
2013-08-30 18:46:00,73.7,69.9,29.92,WNW,285,3.0,13.0,88,0.00,,---,0.00,VWS V14.01,2013-08-30 22:46:00,
2013-08-30 18:51:00,73.9,70.1,29.92,WNW,295,6.0,13.0,88,0.00,,---,0.00,VWS V14.01,2013-08-30 22:51:00,
2013-08-30 18:56:00,74.0,70.2,29.92,South,191,8.0,13.0,88,0.00,,---,0.00,VWS V14.01,2013-08-30 22:56:00,
2013-08-30 19:00:00,74.0,70.2,29.92,South,176,8.0,13.0,88,0.00,,---,0.00,VWS V14.01,2013-08-30 23:00:00,
2013-08-30 19:01:00,74.0,70.2,29.92,SW,236,7.0,13.0,88,0.00,,---,0.00,VWS V14.01,2013-08-30 23:01:00,
2013-08-30 19:06:00,73.8,70.0,29.92,West,271,6.0,14.0,88,0.00,,---,0.00,VWS V14.01,2013-08-30 23:06:00,
2013-08-30 19:30:00,73.1,70.0,29.90,SSW,202,7.0,16.0,90,0.00,,---,0.00,VWS V14.01,2013-08-30 23:30:00,
2013-08-30 20:17:00,73.1,70.0,29.90,SSW,202,7.0,16.0,90,0.00,,---,0.00,VWS V14.01,2013-08-31 00:17:00,
2013-08-30 20:22:00,72.7,70.2,29.91,SSE,157,5.0,11.0,92,0.00,,---,0.00,VWS V14.01,2013-08-31 00:22:00,
2013-08-30 20:27:00,72.7,70.2,29.91,SE,127,6.0,17.0,92,0.00,,---,0.00,VWS V14.01,2013-08-31 00:27:00,
2013-08-30 20:32:00,72.7,70.2,29.91,North,354,7.0,11.0,92,0.00,,---,0.00,VWS V14.01,2013-08-31 00:32:00,
2013-08-30 20:37:00,72.8,70.3,29.91,NNW,338,4.0,13.0,92,0.00,,---,0.00,VWS V14.01,2013-08-31 00:37:00,
2013-08-30 20:42:00,72.7,70.6,29.91,SW,227,9.0,14.0,93,0.00,,---,0.00,VWS V14.01,2013-08-31 00:42:00,
2013-08-30 20:47:00,72.7,70.2,29.91,South,191,7.0,16.0,92,0.00,,---,0.00,VWS V14.01,2013-08-31 00:47:00,
2013-08-30 20:52:00,72.6,70.2,29.91,ENE,67,10.0,16.0,92,0.00,,---,0.00,VWS V14.01,2013-08-31 00:52:00,
2013-08-30 20:57:00,72.6,70.2,29.91,North,2,7.0,16.0,92,0.00,,---,0.00,VWS V14.01,2013-08-31 00:57:00,
2013-08-30 21:02:00,72.6,70.2,29.90,South,190,6.0,11.0,92,0.00,,---,0.00,VWS V14.01,2013-08-31 01:02:00,
2013-08-30 21:07:00,72.6,70.2,29.91,South,180,11.0,16.0,92,0.00,,---,0.00,VWS V14.01,2013-08-31 01:07:00,
2013-08-30 21:12:00,72.6,70.2,29.90,WSW,241,9.0,16.0,92,0.00,,---,0.00,VWS V14.01,2013-08-31 01:12:00,
2013-08-30 21:17:00,72.6,70.2,29.91,South,188,7.0,16.0,92,0.00,,---,0.00,VWS V14.01,2013-08-31 01:17:00,
2013-08-30 21:22:00,72.6,70.5,29.90,WSW,252,6.0,16.0,93,0.00,,---,0.00,VWS V14.01,2013-08-31 01:22:00,
2013-08-30 21:27:00,72.6,70.5,29.91,SSE,167,11.0,16.0,93,0.00,,---,0.00,VWS V14.01,2013-08-31 01:27:00,
2013-08-30 21:32:00,72.6,70.2,29.91,SSW,203,4.0,12.0,92,0.00,,---,0.00,VWS V14.01,2013-08-31 01:32:00,
2013-08-30 21:37:00,72.5,70.1,29.91,NW,311,8.0,18.0,92,0.00,,---,0.00,VWS V14.01,2013-08-31 01:37:00,
2013-08-30 21:42:00,72.5,70.1,29.91,SSE,155,5.0,18.0,92,0.00,,---,0.00,VWS V14.01,2013-08-31 01:42:00,
2013-08-30 21:47:00,72.6,70.2,29.91,SSW,196,12.0,18.0,92,0.00,,---,0.00,VWS V14.01,2013-08-31 01:47:00,
2013-08-30 21:52:00,72.6,70.2,29.91,ENE,71,10.0,18.0,92,0.00,,---,0.00,VWS V14.01,2013-08-31 01:52:00,
2013-08-30 21:57:00,72.6,70.2,29.91,ENE,60,7.0,18.0,92,0.00,,---,0.00,VWS V14.01,2013-08-31 01:57:00,
2013-08-30 22:02:00,72.6,70.2,29.90,SW,225,11.0,15.0,92,0.00,,---,0.00,VWS V14.01,2013-08-31 02:02:00,
2013-08-30 22:07:00,72.6,70.2,29.90,SSW,199,10.0,16.0,92,0.00,,---,0.00,VWS V14.01,2013-08-31 02:07:00,
2013-08-30 22:12:00,72.5,70.1,29.90,SE,124,6.0,16.0,92,0.00,,---,0.00,VWS V14.01,2013-08-31 02:12:00,
2013-08-30 22:17:00,72.5,70.1,29.90,SSW,200,3.0,16.0,92,0.00,,---,0.00,VWS V14.01,2013-08-31 02:17:00,
2013-08-30 22:22:00,72.5,70.1,29.91,SSE,161,5.0,16.0,92,0.00,,---,0.00,VWS V14.01,2013-08-31 02:22:00,
2013-08-30 22:27:00,72.5,70.4,29.91,East,89,7.0,16.0,93,0.00,,---,0.00,VWS V14.01,2013-08-31 02:27:00,
2013-08-30 22:32:00,72.5,70.4,29.91,SW,224,11.0,13.0,93,0.00,,---,0.00,VWS V14.01,2013-08-31 02:32:00,
2013-08-30 22:37:00,72.4,70.3,29.91,SSW,210,9.0,15.0,93,0.00,,---,0.00,VWS V14.01,2013-08-31 02:37:00,
2013-08-30 22:42:00,72.4,70.3,29.91,SSE,162,7.0,19.0,93,0.00,,---,0.00,VWS V14.01,2013-08-31 02:42:00,
2013-08-30 22:47:00,72.4,70.3,29.91,WSW,256,4.0,19.0,93,0.00,,---,0.00,VWS V14.01,2013-08-31 02:47:00,
2013-08-30 22:52:00,72.4,70.3,29.91,SSE,161,8.0,19.0,93,0.00,,---,0.00,VWS V14.01,2013-08-31 02:52:00,
2013-08-30 22:57:00,72.3,70.2,29.92,SSE,157,5.0,19.0,93,0.00,,---,0.00,VWS V14.01,2013-08-31 02:57:00,
2013-08-30 23:02:00,72.2,70.1,29.91,SW,225,11.0,16.0,93,0.00,,---,0.00,VWS V14.01,2013-08-31 03:02:00,
2013-08-30 23:07:00,72.2,70.1,29.91,SSW,200,4.0,18.0,93,0.00,,---,0.00,VWS V14.01,2013-08-31 03:07:00,
2013-08-30 23:12:00,72.2,69.8,29.92,SSW,204,5.0,18.0,92,0.00,,---,0.00,VWS V14.01,2013-08-31 03:12:00,
2013-08-30 23:17:00,72.2,69.8,29.91,ESE,106,12.0,18.0,92,0.00,,---,0.00,VWS V14.01,2013-08-31 03:17:00,
2013-08-30 23:22:00,72.2,69.8,29.91,SSW,199,5.0,18.0,92,0.00,,---,0.00,VWS V14.01,2013-08-31 03:22:00,
2013-08-30 23:27:00,72.2,69.8,29.91,WNW,292,3.0,19.0,92,0.00,,---,0.00,VWS V14.01,2013-08-31 03:27:00,
2013-08-30 23:32:00,72.2,69.4,29.91,ESE,116,8.0,15.0,91,0.00,,---,0.00,VWS V14.01,2013-08-31 03:32:00,
2013-08-30 23:37:00,72.3,69.5,29.92,WSW,245,7.0,15.0,91,0.00,,---,0.00,VWS V14.01,2013-08-31 03:37:00,
2013-08-30 23:42:00,72.4,69.6,29.92,SSW,200,5.0,17.0,91,0.00,,---,0.00,VWS V14.01,2013-08-31 03:42:00,
2013-08-30 23:47:00,72.4,69.3,29.92,South,169,4.0,17.0,90,0.00,,---,0.00,VWS V14.01,2013-08-31 03:47:00,
2013-08-30 23:52:00,72.4,69.6,29.91,SW,217,8.0,17.0,91,0.00,,---,0.00,VWS V14.01,2013-08-31 03:52:00,
2013-08-30 23:57:00,72.4,69.6,29.92,SW,230,13.0,18.0,91,0.00,,---,0.00,VWS V14.01,2013-08-31 03:57:00,